createdAt,value
2019-03-27T00:03:55.432Z,9.57
2019-03-27T00:08:57.203Z,8.87
2019-03-27T00:13:58.804Z,9.07
2019-03-27T00:19:00.594Z,9.37
2019-03-27T00:24:02.269Z,9.27
2019-03-27T00:29:03.951Z,9.47
2019-03-27T00:34:05.661Z,7.57
2019-03-27T00:39:07.411Z,8.60
2019-03-27T00:44:10.050Z,11.37
2019-03-27T00:49:11.930Z,9.00
2019-03-27T00:54:16.190Z,9.73
2019-03-27T00:59:19.389Z,8.50
2019-03-27T01:04:21.287Z,7.00
2019-03-27T01:09:23.199Z,8.20
2019-03-27T01:14:24.852Z,8.77
2019-03-27T01:19:26.609Z,8.20
2019-03-27T01:24:31.679Z,9.57
2019-03-27T01:29:37.407Z,10.47
2019-03-27T01:34:39.176Z,7.80
2019-03-27T01:39:41.075Z,10.47
2019-03-27T01:44:42.833Z,9.20
2019-03-27T01:49:44.609Z,9.30
2019-03-27T01:54:46.658Z,11.37
2019-03-27T01:59:48.798Z,8.07
2019-03-27T02:04:50.568Z,9.07
2019-03-27T02:09:52.330Z,9.07
2019-03-27T02:14:54.027Z,6.83
2019-03-27T02:19:55.726Z,8.27
2019-03-27T02:24:57.427Z,8.40
2019-03-27T02:29:59.126Z,9.37
2019-03-27T02:35:00.849Z,7.97
2019-03-27T02:40:04.591Z,9.27
2019-03-27T02:45:06.868Z,8.27
2019-03-27T02:50:08.899Z,7.37
2019-03-27T02:55:10.906Z,6.60
2019-03-27T03:00:13.129Z,7.53
2019-03-27T03:05:14.744Z,6.83
2019-03-27T03:10:17.126Z,5.60
2019-03-27T03:15:20.289Z,6.40
2019-03-27T03:20:22.057Z,7.00
2019-03-27T03:25:23.751Z,7.47
2019-03-27T03:30:25.451Z,6.47
2019-03-27T03:35:27.253Z,5.50
2019-03-27T03:40:29.049Z,4.67
2019-03-27T03:45:30.842Z,5.30
2019-03-27T03:50:40.407Z,4.00
2019-03-27T03:55:43.148Z,4.20
2019-03-27T04:00:44.945Z,4.60
2019-03-27T04:05:47.044Z,3.53
2019-03-27T04:10:48.843Z,3.80
2019-03-27T04:15:50.421Z,5.07
2019-03-27T04:20:52.142Z,4.77
2019-03-27T04:26:08.992Z,4.03
2019-03-27T04:30:57.475Z,5.27
2019-03-27T04:35:59.279Z,4.67
2019-03-27T04:41:01.068Z,4.93
2019-03-27T04:46:02.764Z,6.83
2019-03-27T04:51:04.977Z,4.57
2019-03-27T04:56:09.215Z,5.13
2019-03-27T05:01:11.438Z,6.20
2019-03-27T05:06:13.133Z,5.27
2019-03-27T05:11:14.826Z,4.40
2019-03-27T05:16:16.523Z,5.10
2019-03-27T05:21:18.231Z,5.80
2019-03-27T05:26:20.031Z,5.33
2019-03-27T05:31:21.678Z,5.77
2019-03-27T05:36:23.692Z,6.70
2019-03-27T05:41:25.962Z,5.53
2019-03-27T05:46:28.197Z,6.43
2019-03-27T05:51:30.001Z,8.73
2019-03-27T05:56:32.015Z,6.47
2019-03-27T06:01:34.207Z,6.50
2019-03-27T06:06:36.377Z,7.30
2019-03-27T06:11:38.115Z,7.67
2019-03-27T06:16:40.388Z,7.90
2019-03-27T06:21:42.108Z,8.30
2019-03-27T06:26:43.843Z,7.13
2019-03-27T06:31:45.527Z,7.47
2019-03-27T06:36:47.247Z,6.60
2019-03-27T06:41:48.969Z,6.83
2019-03-27T06:47:01.538Z,10.03
2019-03-27T06:52:05.105Z,9.47
2019-03-27T06:57:06.950Z,8.80
2019-03-27T07:02:08.678Z,10.43
2019-03-27T07:07:13.622Z,9.00
2019-03-27T07:12:21.324Z,8.67
2019-03-27T07:17:20.492Z,9.20
2019-03-27T07:22:22.585Z,9.60
2019-03-27T07:27:24.167Z,9.50
2019-03-27T07:32:26.213Z,11.57
2019-03-27T07:37:27.881Z,12.37
2019-03-27T07:42:29.535Z,12.20
2019-03-27T07:47:31.301Z,12.37
2019-03-27T07:52:33.177Z,8.27
2019-03-27T07:57:34.934Z,12.00
2019-03-27T08:02:37.644Z,12.80
2019-03-27T08:07:39.418Z,10.40
2019-03-27T08:12:41.192Z,11.23
2019-03-27T08:17:42.786Z,12.97
2019-03-27T08:22:45.324Z,9.40
2019-03-27T08:27:46.973Z,9.00
2019-03-27T08:32:48.726Z,11.43
2019-03-27T08:37:50.457Z,11.00
2019-03-27T08:42:52.451Z,11.87
2019-03-27T08:47:54.212Z,12.50
2019-03-27T08:52:56.944Z,13.07
2019-03-27T08:57:58.836Z,17.57
2019-03-27T09:03:00.710Z,15.23
2019-03-27T09:08:16.920Z,15.50
2019-03-27T09:13:19.149Z,16.00
2019-03-27T09:18:20.847Z,15.03
2019-03-27T09:23:22.777Z,13.40
2019-03-27T09:28:24.937Z,14.10
2019-03-27T09:33:26.587Z,12.20
2019-03-27T09:38:28.627Z,13.67
2019-03-27T09:43:30.421Z,10.40
2019-03-27T09:48:32.944Z,13.47
2019-03-27T09:53:35.460Z,13.90
2019-03-27T09:58:37.264Z,12.97
2019-03-27T10:03:39.066Z,12.43
2019-03-27T10:08:41.060Z,16.20
2019-03-27T10:13:42.980Z,13.00
2019-03-27T10:18:47.322Z,15.27
2019-03-27T10:23:49.144Z,13.17
2019-03-27T10:28:51.333Z,14.07
2019-03-27T10:33:53.338Z,13.60
2019-03-27T10:38:55.071Z,13.93
2019-03-27T10:43:56.779Z,12.67
2019-03-27T10:48:58.505Z,14.03
2019-03-27T10:54:00.665Z,12.93
2019-03-27T10:59:02.634Z,12.40
2019-03-27T11:04:06.599Z,13.83
2019-03-27T11:09:08.707Z,13.03
2019-03-27T11:14:12.412Z,12.40
2019-03-27T11:19:14.337Z,10.67
2019-03-27T11:24:16.494Z,10.87
2019-03-27T11:29:18.159Z,11.80
2019-03-27T11:34:20.101Z,13.17
2019-03-27T11:39:24.823Z,12.80
2019-03-27T11:44:26.868Z,11.53
2019-03-27T11:49:28.454Z,12.23
2019-03-27T11:54:30.698Z,8.73
2019-03-27T11:59:32.597Z,9.07
2019-03-27T12:04:34.305Z,8.77
2019-03-27T12:09:35.914Z,9.53
2019-03-27T12:14:37.688Z,7.03
2019-03-27T12:19:39.350Z,7.27
2019-03-27T12:24:41.623Z,8.23
2019-03-27T12:29:43.348Z,7.40
2019-03-27T12:34:47.241Z,7.87
2019-03-27T12:39:49.079Z,8.27
2019-03-27T12:44:50.818Z,7.30
2019-03-27T12:49:52.632Z,5.97
2019-03-27T12:54:54.778Z,5.27
2019-03-27T12:59:56.682Z,6.60
2019-03-27T13:04:58.419Z,6.23
2019-03-27T13:10:00.590Z,5.00
2019-03-27T13:15:05.310Z,4.90
2019-03-27T13:20:08.447Z,3.63
2019-03-27T13:25:10.682Z,4.27
2019-03-27T13:30:12.725Z,4.37
2019-03-27T13:35:15.290Z,3.30
2019-03-27T13:40:17.283Z,4.00
2019-03-27T13:45:19.302Z,4.53
2019-03-27T13:50:21.187Z,4.83
2019-03-27T13:55:23.318Z,5.17
2019-03-27T14:00:32.274Z,6.40
2019-03-27T14:05:34.209Z,6.60
2019-03-27T14:10:35.895Z,7.90
2019-03-27T14:15:38.768Z,8.77
2019-03-27T14:20:40.417Z,10.60
2019-03-27T14:25:42.450Z,9.77
2019-03-27T14:30:52.009Z,11.47
2019-03-27T14:35:53.737Z,10.93
2019-03-27T14:40:55.919Z,11.67
2019-03-27T14:45:57.967Z,10.00
2019-03-27T14:50:59.666Z,11.90
2019-03-27T14:56:01.366Z,11.40
2019-03-27T15:01:03.758Z,11.90
2019-03-27T15:06:05.495Z,11.20
2019-03-27T15:11:07.784Z,10.70
2019-03-27T15:16:09.473Z,11.37
2019-03-27T15:21:11.153Z,9.80
2019-03-27T15:26:13.232Z,14.00
2019-03-27T15:31:20.822Z,11.07
2019-03-27T15:36:19.328Z,11.90
2019-03-27T15:41:20.963Z,13.07
2019-03-27T15:46:22.667Z,12.67
2019-03-27T15:51:24.362Z,12.67
2019-03-27T15:56:26.371Z,13.30
2019-03-27T16:01:29.790Z,14.40
2019-03-27T16:06:31.700Z,12.77
2019-03-27T16:11:33.493Z,13.33
2019-03-27T16:16:35.391Z,12.90
2019-03-27T16:21:37.805Z,12.90
2019-03-27T16:26:40.024Z,11.97
2019-03-27T16:31:42.336Z,10.53
2019-03-27T16:36:44.146Z,9.70
2019-03-27T16:41:45.935Z,12.03
2019-03-27T16:46:47.663Z,14.40
2019-03-27T16:51:49.435Z,18.70
2019-03-27T16:56:51.147Z,22.20
2019-03-27T17:01:53.337Z,23.40
2019-03-27T17:06:55.240Z,22.53
2019-03-27T17:11:57.043Z,25.07
2019-03-27T17:16:59.776Z,25.27
2019-03-27T17:22:01.526Z,24.70
2019-03-27T17:27:03.246Z,23.97
2019-03-27T17:32:05.433Z,23.33
2019-03-27T17:37:07.169Z,23.30
2019-03-27T17:42:08.968Z,21.83
2019-03-27T17:47:10.654Z,22.47
2019-03-27T17:52:12.412Z,22.30
2019-03-27T17:57:14.234Z,22.10
2019-03-27T18:02:16.636Z,20.10
2019-03-27T18:07:18.857Z,18.60
2019-03-27T18:12:20.743Z,20.43
2019-03-27T18:17:36.120Z,20.93
2019-03-27T18:22:38.200Z,19.10
2019-03-27T18:27:40.078Z,22.73
2019-03-27T18:32:42.760Z,23.53
2019-03-27T18:37:44.701Z,22.13
2019-03-27T18:42:46.423Z,22.70
2019-03-27T18:47:48.322Z,24.50
2019-03-27T18:52:50.361Z,23.80
2019-03-27T18:58:00.186Z,24.23
2019-03-27T19:02:56.981Z,24.73
2019-03-27T19:07:59.005Z,26.30
2019-03-27T19:13:00.910Z,23.67
2019-03-27T19:18:05.104Z,25.07
2019-03-27T19:23:06.909Z,24.00
2019-03-27T19:28:08.736Z,25.63
2019-03-27T19:33:10.939Z,24.80
2019-03-27T19:38:12.865Z,24.63
2019-03-27T19:43:14.637Z,27.40
2019-03-27T19:48:19.093Z,28.07
2019-03-27T19:53:21.021Z,32.97
2019-03-27T19:58:23.113Z,25.90
2019-03-27T20:03:25.421Z,30.47
2019-03-27T20:08:27.226Z,30.83
2019-03-27T20:13:29.128Z,33.97
2019-03-27T20:18:31.234Z,34.13
2019-03-27T20:23:33.138Z,36.13
2019-03-27T20:28:35.665Z,36.47
2019-03-27T20:33:38.418Z,34.10
2019-03-27T20:38:40.390Z,38.30
2019-03-27T20:43:42.396Z,36.70
2019-03-27T20:48:44.304Z,33.13
2019-03-27T20:53:46.177Z,30.67
2019-03-27T20:58:47.956Z,30.53
2019-03-27T21:03:50.264Z,36.50
2019-03-27T21:08:52.286Z,36.10
2019-03-27T21:13:56.039Z,35.47
2019-03-27T21:18:58.047Z,37.37
2019-03-27T21:23:59.693Z,35.57
2019-03-27T21:29:01.384Z,36.33
2019-03-27T21:34:07.392Z,38.90
2019-03-27T21:39:09.182Z,40.33
2019-03-27T21:44:11.300Z,38.43
2019-03-27T21:49:12.903Z,36.53
2019-03-27T21:54:14.579Z,35.13
2019-03-27T21:59:16.238Z,36.33
2019-03-27T22:04:18.546Z,35.77
2019-03-27T22:09:20.257Z,33.53
2019-03-27T22:14:21.948Z,35.60
2019-03-27T22:19:23.647Z,32.60
2019-03-27T22:24:25.461Z,34.40
2019-03-27T22:29:27.152Z,25.23
2019-03-27T22:34:28.806Z,32.50
2019-03-27T22:39:30.651Z,30.80
2019-03-27T22:44:32.272Z,28.70
2019-03-27T22:49:33.978Z,28.33
2019-03-27T22:54:35.675Z,29.40
2019-03-27T22:59:37.342Z,27.37
2019-03-27T23:04:40.999Z,25.43
2019-03-27T23:09:43.333Z,28.83
2019-03-27T23:14:44.990Z,22.60
2019-03-27T23:19:46.690Z,27.97
2019-03-27T23:24:48.349Z,27.43
2019-03-27T23:29:50.033Z,26.73
2019-03-27T23:34:51.703Z,25.70
2019-03-27T23:39:53.385Z,26.70
2019-03-27T23:44:58.151Z,23.57
2019-03-27T23:49:59.910Z,23.40
2019-03-27T23:55:02.017Z,26.43
